sensor_id;sensor_type;location;lat;lon;timestamp;pressure;altitude;pressure_sealevel;temperature;humidity
58385;BME280;44185;47.844;8.966;2023-05-21T00:01:59;95724.72;;;12.35;100.00
58385;BME280;44185;47.844;8.966;2023-05-21T00:04:25;95728.03;;;12.37;100.00
58385;BME280;44185;47.844;8.966;2023-05-21T00:06:50;95725.06;;;12.40;100.00
58385;BME280;44185;47.844;8.966;2023-05-21T00:09:16;95720.78;;;12.39;100.00
58385;BME280;44185;47.844;8.966;2023-05-21T00:11:42;95713.78;;;12.38;100.00
58385;BME280;44185;47.844;8.966;2023-05-21T00:14:08;95707.13;;;12.34;100.00
58385;BME280;44185;47.844;8.966;2023-05-21T00:16:33;95704.44;;;12.26;100.00
58385;BME280;44185;47.844;8.966;2023-05-21T00:18:59;95711.06;;;12.30;100.00
58385;BME280;44185;47.844;8.966;2023-05-21T00:21:24;95709.44;;;12.29;100.00
58385;BME280;44185;47.844;8.966;2023-05-21T00:23:49;95703.66;;;12.33;100.00
58385;BME280;44185;47.844;8.966;2023-05-21T00:26:15;95697.81;;;12.30;100.00
58385;BME280;44185;47.844;8.966;2023-05-21T00:28:42;95699.44;;;12.22;100.00
58385;BME280;44185;47.844;8.966;2023-05-21T00:31:07;95693.91;;;12.16;100.00
58385;BME280;44185;47.844;8.966;2023-05-21T00:33:32;95689.72;;;12.13;100.00
58385;BME280;44185;47.844;8.966;2023-05-21T00:35:58;95697.78;;;12.03;100.00
58385;BME280;44185;47.844;8.966;2023-05-21T00:38:23;95685.59;;;11.92;100.00
58385;BME280;44185;47.844;8.966;2023-05-21T00:40:49;95687.97;;;11.77;100.00
58385;BME280;44185;47.844;8.966;2023-05-21T00:43:15;95683.88;;;11.83;100.00
58385;BME280;44185;47.844;8.966;2023-05-21T00:45:42;95684.84;;;11.82;100.00
58385;BME280;44185;47.844;8.966;2023-05-21T00:48:07;95681.53;;;11.79;100.00
58385;BME280;44185;47.844;8.966;2023-05-21T00:50:33;95673.59;;;11.79;100.00
58385;BME280;44185;47.844;8.966;2023-05-21T00:52:59;95673.69;;;11.70;100.00
58385;BME280;44185;47.844;8.966;2023-05-21T00:55:24;95672.63;;;11.62;100.00
58385;BME280;44185;47.844;8.966;2023-05-21T00:57:50;95673.22;;;11.56;100.00
58385;BME280;44185;47.844;8.966;2023-05-21T01:00:16;95671.25;;;11.58;100.00
58385;BME280;44185;47.844;8.966;2023-05-21T01:02:42;95674.97;;;11.47;100.00
58385;BME280;44185;47.844;8.966;2023-05-21T01:05:09;95672.63;;;11.44;100.00
58385;BME280;44185;47.844;8.966;2023-05-21T01:07:36;95674.97;;;11.47;100.00
58385;BME280;44185;47.844;8.966;2023-05-21T01:10:02;95672.47;;;11.45;100.00
58385;BME280;44185;47.844;8.966;2023-05-21T01:12:30;95670.22;;;11.51;100.00
58385;BME280;44185;47.844;8.966;2023-05-21T01:14:56;95674.06;;;11.56;100.00
58385;BME280;44185;47.844;8.966;2023-05-21T01:17:22;95671.63;;;11.63;100.00
58385;BME280;44185;47.844;8.966;2023-05-21T01:19:49;95673.00;;;11.67;100.00
58385;BME280;44185;47.844;8.966;2023-05-21T01:22:16;95670.72;;;11.73;100.00
58385;BME280;44185;47.844;8.966;2023-05-21T01:24:44;95667.25;;;11.72;100.00
58385;BME280;44185;47.844;8.966;2023-05-21T01:27:09;95661.09;;;11.72;100.00
58385;BME280;44185;47.844;8.966;2023-05-21T01:29:35;95659.06;;;11.65;100.00
58385;BME280;44185;47.844;8.966;2023-05-21T01:32:04;95658.38;;;11.63;100.00
58385;BME280;44185;47.844;8.966;2023-05-21T01:34:36;95655.59;;;11.65;100.00
58385;BME280;44185;47.844;8.966;2023-05-21T01:37:11;95654.16;;;11.52;100.00
58385;BME280;44185;47.844;8.966;2023-05-21T01:39:40;95653.00;;;11.55;100.00
58385;BME280;44185;47.844;8.966;2023-05-21T01:42:09;95655.38;;;11.40;100.00
58385;BME280;44185;47.844;8.966;2023-05-21T01:44:36;95645.91;;;11.37;100.00
58385;BME280;44185;47.844;8.966;2023-05-21T01:47:02;95655.22;;;11.41;100.00
58385;BME280;44185;47.844;8.966;2023-05-21T01:49:29;95655.44;;;11.48;100.00
58385;BME280;44185;47.844;8.966;2023-05-21T01:51:55;95649.78;;;11.43;100.00
58385;BME280;44185;47.844;8.966;2023-05-21T01:54:20;95656.34;;;11.39;100.00
58385;BME280;44185;47.844;8.966;2023-05-21T01:56:45;95651.50;;;11.34;100.00
58385;BME280;44185;47.844;8.966;2023-05-21T01:59:12;95648.56;;;11.37;100.00
58385;BME280;44185;47.844;8.966;2023-05-21T02:01:38;95647.44;;;11.40;100.00
58385;BME280;44185;47.844;8.966;2023-05-21T02:04:03;95643.56;;;11.34;100.00
58385;BME280;44185;47.844;8.966;2023-05-21T02:06:29;95649.03;;;11.32;100.00
58385;BME280;44185;47.844;8.966;2023-05-21T02:08:54;95643.88;;;11.31;100.00
58385;BME280;44185;47.844;8.966;2023-05-21T02:11:20;95646.97;;;11.26;100.00
58385;BME280;44185;47.844;8.966;2023-05-21T02:13:45;95650.75;;;11.23;100.00
58385;BME280;44185;47.844;8.966;2023-05-21T02:16:12;95655.22;;;11.23;100.00
58385;BME280;44185;47.844;8.966;2023-05-21T02:18:37;95646.84;;;11.28;100.00
58385;BME280;44185;47.844;8.966;2023-05-21T02:21:03;95649.31;;;11.29;100.00
58385;BME280;44185;47.844;8.966;2023-05-21T02:23:28;95651.50;;;11.16;100.00
58385;BME280;44185;47.844;8.966;2023-05-21T02:25:54;95653.31;;;11.15;100.00
58385;BME280;44185;47.844;8.966;2023-05-21T02:28:19;95651.22;;;11.19;100.00
58385;BME280;44185;47.844;8.966;2023-05-21T02:30:44;95641.28;;;11.21;100.00
58385;BME280;44185;47.844;8.966;2023-05-21T02:33:11;95639.19;;;11.25;100.00
58385;BME280;44185;47.844;8.966;2023-05-21T02:35:37;95638.72;;;11.29;100.00
58385;BME280;44185;47.844;8.966;2023-05-21T02:38:02;95634.78;;;11.33;100.00
58385;BME280;44185;47.844;8.966;2023-05-21T02:40:27;95633.34;;;11.39;100.00
58385;BME280;44185;47.844;8.966;2023-05-21T02:42:53;95632.50;;;11.39;100.00
58385;BME280;44185;47.844;8.966;2023-05-21T02:45:18;95633.66;;;11.36;100.00
58385;BME280;44185;47.844;8.966;2023-05-21T02:47:44;95633.50;;;11.38;100.00
58385;BME280;44185;47.844;8.966;2023-05-21T02:50:12;95627.84;;;11.32;100.00
58385;BME280;44185;47.844;8.966;2023-05-21T02:52:38;95623.00;;;11.28;100.00
58385;BME280;44185;47.844;8.966;2023-05-21T02:55:04;95630.50;;;11.32;100.00
58385;BME280;44185;47.844;8.966;2023-05-21T02:57:29;95628.34;;;11.36;100.00
58385;BME280;44185;47.844;8.966;2023-05-21T02:59:55;95625.41;;;11.39;100.00
58385;BME280;44185;47.844;8.966;2023-05-21T03:02:20;95629.06;;;11.38;100.00
58385;BME280;44185;47.844;8.966;2023-05-21T03:04:45;95629.06;;;11.38;100.00
58385;BME280;44185;47.844;8.966;2023-05-21T03:07:12;95629.25;;;11.45;100.00
58385;BME280;44185;47.844;8.966;2023-05-21T03:09:38;95630.63;;;11.49;100.00
58385;BME280;44185;47.844;8.966;2023-05-21T03:12:05;95626.22;;;11.58;100.00
58385;BME280;44185;47.844;8.966;2023-05-21T03:14:30;95626.22;;;11.58;100.00
58385;BME280;44185;47.844;8.966;2023-05-21T03:16:56;95631.03;;;11.63;100.00
58385;BME280;44185;47.844;8.966;2023-05-21T03:19:21;95625.91;;;11.61;100.00
58385;BME280;44185;47.844;8.966;2023-05-21T03:21:46;95626.75;;;11.62;100.00
58385;BME280;44185;47.844;8.966;2023-05-21T03:24:13;95622.97;;;11.64;100.00
58385;BME280;44185;47.844;8.966;2023-05-21T03:26:39;95626.38;;;11.56;100.00
58385;BME280;44185;47.844;8.966;2023-05-21T03:29:04;95637.75;;;11.49;100.00
58385;BME280;44185;47.844;8.966;2023-05-21T03:31:30;95636.06;;;11.48;100.00
58385;BME280;44185;47.844;8.966;2023-05-21T03:33:55;95635.97;;;11.57;100.00
58385;BME280;44185;47.844;8.966;2023-05-21T03:36:20;95640.09;;;11.52;100.00
58385;BME280;44185;47.844;8.966;2023-05-21T03:38:46;95647.34;;;11.50;100.00
58385;BME280;44185;47.844;8.966;2023-05-21T03:41:13;95644.09;;;11.19;100.00
58385;BME280;44185;47.844;8.966;2023-05-21T03:43:38;95649.78;;;11.06;100.00
58385;BME280;44185;47.844;8.966;2023-05-21T03:46:04;95648.78;;;11.07;100.00
58385;BME280;44185;47.844;8.966;2023-05-21T03:48:29;95652.66;;;11.13;100.00
58385;BME280;44185;47.844;8.966;2023-05-21T03:50:55;95651.81;;;11.12;100.00
58385;BME280;44185;47.844;8.966;2023-05-21T03:53:21;95653.56;;;11.22;100.00
58385;BME280;44185;47.844;8.966;2023-05-21T03:55:46;95640.78;;;11.17;100.00
58385;BME280;44185;47.844;8.966;2023-05-21T03:58:13;95649.91;;;11.23;100.00
58385;BME280;44185;47.844;8.966;2023-05-21T04:00:38;95648.94;;;11.24;100.00
58385;BME280;44185;47.844;8.966;2023-05-21T04:03:04;95649.16;;;11.31;100.00
58385;BME280;44185;47.844;8.966;2023-05-21T04:05:29;95646.09;;;11.36;100.00
58385;BME280;44185;47.844;8.966;2023-05-21T04:07:55;95647.97;;;11.43;100.00
58385;BME280;44185;47.844;8.966;2023-05-21T04:10:20;95649.19;;;11.49;100.00
58385;BME280;44185;47.844;8.966;2023-05-21T04:12:46;95655.44;;;11.66;100.00
58385;BME280;44185;47.844;8.966;2023-05-21T04:15:12;95651.09;;;11.65;100.00
58385;BME280;44185;47.844;8.966;2023-05-21T04:17:38;95652.19;;;11.73;100.00
58385;BME280;44185;47.844;8.966;2023-05-21T04:20:04;95652.09;;;11.64;100.00
58385;BME280;44185;47.844;8.966;2023-05-21T04:22:30;95652.81;;;11.48;100.00
58385;BME280;44185;47.844;8.966;2023-05-21T04:24:55;95654.25;;;11.42;100.00
58385;BME280;44185;47.844;8.966;2023-05-21T04:27:21;95645.84;;;11.29;100.00
58385;BME280;44185;47.844;8.966;2023-05-21T04:29:46;95647.28;;;11.23;100.00
58385;BME280;44185;47.844;8.966;2023-05-21T04:32:13;95654.03;;;11.17;100.00
58385;BME280;44185;47.844;8.966;2023-05-21T04:34:38;95654.25;;;11.24;100.00
58385;BME280;44185;47.844;8.966;2023-05-21T04:37:04;95661.44;;;11.32;100.00
58385;BME280;44185;47.844;8.966;2023-05-21T04:39:29;95661.06;;;11.27;100.00
58385;BME280;44185;47.844;8.966;2023-05-21T04:41:55;95667.78;;;11.39;100.00
58385;BME280;44185;47.844;8.966;2023-05-21T04:44:20;95673.25;;;11.38;100.00
58385;BME280;44185;47.844;8.966;2023-05-21T04:46:46;95680.19;;;11.39;100.00
58385;BME280;44185;47.844;8.966;2023-05-21T04:49:13;95676.78;;;11.46;100.00
58385;BME280;44185;47.844;8.966;2023-05-21T04:51:38;95676.84;;;11.55;100.00
58385;BME280;44185;47.844;8.966;2023-05-21T04:54:04;95679.38;;;11.56;100.00
58385;BME280;44185;47.844;8.966;2023-05-21T04:56:29;95681.84;;;11.58;100.00
58385;BME280;44185;47.844;8.966;2023-05-21T04:58:55;95683.66;;;11.57;100.00
58385;BME280;44185;47.844;8.966;2023-05-21T05:01:21;95684.03;;;11.63;100.00
58385;BME280;44185;47.844;8.966;2023-05-21T05:03:46;95691.56;;;11.67;100.00
58385;BME280;44185;47.844;8.966;2023-05-21T05:06:13;95689.94;;;11.75;100.00
58385;BME280;44185;47.844;8.966;2023-05-21T05:08:38;95696.59;;;11.79;100.00
58385;BME280;44185;47.844;8.966;2023-05-21T05:11:04;95690.69;;;11.85;100.00
58385;BME280;44185;47.844;8.966;2023-05-21T05:13:30;95695.53;;;11.90;100.00
58385;BME280;44185;47.844;8.966;2023-05-21T05:15:55;95694.38;;;11.93;100.00
58385;BME280;44185;47.844;8.966;2023-05-21T05:18:20;95692.47;;;12.03;100.00
58385;BME280;44185;47.844;8.966;2023-05-21T05:20:46;95695.78;;;12.05;100.00
58385;BME280;44185;47.844;8.966;2023-05-21T05:23:13;95698.53;;;12.14;100.00
58385;BME280;44185;47.844;8.966;2023-05-21T05:25:39;95699.38;;;12.14;100.00
58385;BME280;44185;47.844;8.966;2023-05-21T05:28:04;95696.41;;;12.17;100.00
58385;BME280;44185;47.844;8.966;2023-05-21T05:30:29;95700.28;;;12.23;100.00
58385;BME280;44185;47.844;8.966;2023-05-21T05:32:55;95694.91;;;12.15;100.00
58385;BME280;44185;47.844;8.966;2023-05-21T05:35:20;95695.09;;;12.21;100.00
58385;BME280;44185;47.844;8.966;2023-05-21T05:37:46;95701.09;;;12.23;100.00
58385;BME280;44185;47.844;8.966;2023-05-21T05:40:13;95701.00;;;12.33;100.00
58385;BME280;44185;47.844;8.966;2023-05-21T05:42:38;95704.31;;;12.36;100.00
58385;BME280;44185;47.844;8.966;2023-05-21T05:45:05;95697.69;;;12.40;100.00
58385;BME280;44185;47.844;8.966;2023-05-21T05:47:30;95693.88;;;12.34;100.00
58385;BME280;44185;47.844;8.966;2023-05-21T05:49:56;95695.03;;;12.40;100.00
58385;BME280;44185;47.844;8.966;2023-05-21T05:52:21;95698.06;;;12.45;100.00
58385;BME280;44185;47.844;8.966;2023-05-21T05:54:47;95698.63;;;12.57;100.00
58385;BME280;44185;47.844;8.966;2023-05-21T05:57:13;95696.84;;;12.66;100.00
58385;BME280;44185;47.844;8.966;2023-05-21T05:59:39;95697.84;;;12.65;100.00
58385;BME280;44185;47.844;8.966;2023-05-21T06:02:04;95697.22;;;12.71;100.00
58385;BME280;44185;47.844;8.966;2023-05-21T06:04:30;95703.69;;;12.77;100.00
58385;BME280;44185;47.844;8.966;2023-05-21T06:06:55;95702.53;;;12.79;100.00
58385;BME280;44185;47.844;8.966;2023-05-21T06:09:21;95707.38;;;12.84;100.00
58385;BME280;44185;47.844;8.966;2023-05-21T06:11:46;95705.41;;;12.86;100.00
58385;BME280;44185;47.844;8.966;2023-05-21T06:14:13;95704.94;;;12.99;100.00
58385;BME280;44185;47.844;8.966;2023-05-21T06:16:38;95711.94;;;13.09;100.00
58385;BME280;44185;47.844;8.966;2023-05-21T06:19:04;95707.00;;;13.22;100.00
58385;BME280;44185;47.844;8.966;2023-05-21T06:21:30;95704.53;;;13.38;100.00
58385;BME280;44185;47.844;8.966;2023-05-21T06:23:55;95704.22;;;13.49;100.00
58385;BME280;44185;47.844;8.966;2023-05-21T06:26:21;95708.25;;;13.70;100.00
58385;BME280;44185;47.844;8.966;2023-05-21T06:28:46;95710.59;;;13.82;100.00
58385;BME280;44185;47.844;8.966;2023-05-21T06:31:13;95707.59;;;13.76;100.00
58385;BME280;44185;47.844;8.966;2023-05-21T06:33:38;95708.13;;;13.80;100.00
58385;BME280;44185;47.844;8.966;2023-05-21T06:36:05;95710.94;;;13.87;100.00
58385;BME280;44185;47.844;8.966;2023-05-21T06:38:30;95706.59;;;13.86;100.00
58385;BME280;44185;47.844;8.966;2023-05-21T06:40:55;95717.41;;;14.01;100.00
58385;BME280;44185;47.844;8.966;2023-05-21T06:43:21;95717.56;;;14.08;100.00
58385;BME280;44185;47.844;8.966;2023-05-21T06:45:46;95708.09;;;14.05;100.00
58385;BME280;44185;47.844;8.966;2023-05-21T06:48:13;95711.91;;;14.28;100.00
58385;BME280;44185;47.844;8.966;2023-05-21T06:50:39;95709.22;;;14.36;100.00
58385;BME280;44185;47.844;8.966;2023-05-21T06:53:04;95709.50;;;14.50;100.00
58385;BME280;44185;47.844;8.966;2023-05-21T06:55:29;95704.50;;;14.63;100.00
58385;BME280;44185;47.844;8.966;2023-05-21T06:57:56;95707.31;;;14.70;100.00
58385;BME280;44185;47.844;8.966;2023-05-21T07:00:22;95714.25;;;14.79;100.00
58385;BME280;44185;47.844;8.966;2023-05-21T07:02:47;95713.09;;;14.82;100.00
58385;BME280;44185;47.844;8.966;2023-05-21T07:05:14;95711.91;;;14.93;100.00
58385;BME280;44185;47.844;8.966;2023-05-21T07:07:39;95700.75;;;14.89;100.00
58385;BME280;44185;47.844;8.966;2023-05-21T07:10:06;95704.59;;;14.87;100.00
58385;BME280;44185;47.844;8.966;2023-05-21T07:12:31;95709.56;;;14.98;100.00
58385;BME280;44185;47.844;8.966;2023-05-21T07:14:57;95713.72;;;15.01;100.00
58385;BME280;44185;47.844;8.966;2023-05-21T07:17:22;95709.94;;;15.19;100.00
58385;BME280;44185;47.844;8.966;2023-05-21T07:19:47;95713.88;;;15.31;100.00
58385;BME280;44185;47.844;8.966;2023-05-21T07:22:14;95712.38;;;15.84;100.00
58385;BME280;44185;47.844;8.966;2023-05-21T07:24:40;95717.28;;;16.19;100.00
58385;BME280;44185;47.844;8.966;2023-05-21T07:27:05;95715.56;;;16.42;100.00
58385;BME280;44185;47.844;8.966;2023-05-21T07:29:31;95712.25;;;16.70;100.00
58385;BME280;44185;47.844;8.966;2023-05-21T07:31:57;95719.00;;;16.66;100.00
58385;BME280;44185;47.844;8.966;2023-05-21T07:34:22;95716.22;;;17.05;100.00
58385;BME280;44185;47.844;8.966;2023-05-21T07:36:48;95715.56;;;17.33;98.68
58385;BME280;44185;47.844;8.966;2023-05-21T07:39:14;95720.31;;;16.85;96.67
58385;BME280;44185;47.844;8.966;2023-05-21T07:41:40;95718.16;;;16.96;96.72
58385;BME280;44185;47.844;8.966;2023-05-21T07:44:05;95715.75;;;16.86;97.74
58385;BME280;44185;47.844;8.966;2023-05-21T07:46:31;95715.50;;;16.96;99.01
58385;BME280;44185;47.844;8.966;2023-05-21T07:48:56;95717.78;;;16.99;96.83
58385;BME280;44185;47.844;8.966;2023-05-21T07:51:22;95714.13;;;16.85;97.15
58385;BME280;44185;47.844;8.966;2023-05-21T07:53:47;95712.81;;;16.96;97.26
58385;BME280;44185;47.844;8.966;2023-05-21T07:56:14;95714.38;;;17.20;95.99
58385;BME280;44185;47.844;8.966;2023-05-21T07:58:39;95722.19;;;17.37;96.40
58385;BME280;44185;47.844;8.966;2023-05-21T08:01:05;95717.56;;;17.46;95.32
58385;BME280;44185;47.844;8.966;2023-05-21T08:03:30;95715.56;;;17.55;94.02
58385;BME280;44185;47.844;8.966;2023-05-21T08:05:56;95717.25;;;17.78;94.16
58385;BME280;44185;47.844;8.966;2023-05-21T08:08:21;95708.38;;;17.99;91.15
58385;BME280;44185;47.844;8.966;2023-05-21T08:10:47;95716.00;;;18.47;90.71
58385;BME280;44185;47.844;8.966;2023-05-21T08:13:14;95712.06;;;18.78;87.77
58385;BME280;44185;47.844;8.966;2023-05-21T08:15:39;95710.66;;;18.89;89.16
58385;BME280;44185;47.844;8.966;2023-05-21T08:18:05;95715.28;;;19.09;84.90
58385;BME280;44185;47.844;8.966;2023-05-21T08:20:30;95715.66;;;18.99;87.08
58385;BME280;44185;47.844;8.966;2023-05-21T08:22:56;95714.84;;;18.34;87.47
58385;BME280;44185;47.844;8.966;2023-05-21T08:25:21;95714.47;;;18.37;89.67
58385;BME280;44185;47.844;8.966;2023-05-21T08:27:47;95711.03;;;18.50;89.28
58385;BME280;44185;47.844;8.966;2023-05-21T08:30:13;95705.69;;;19.21;88.87
58385;BME280;44185;47.844;8.966;2023-05-21T08:32:39;95710.72;;;19.45;85.27
58385;BME280;44185;47.844;8.966;2023-05-21T08:35:05;95712.25;;;19.95;84.31
58385;BME280;44185;47.844;8.966;2023-05-21T08:37:31;95709.59;;;20.29;81.33
58385;BME280;44185;47.844;8.966;2023-05-21T08:39:56;95710.19;;;20.52;81.12
58385;BME280;44185;47.844;8.966;2023-05-21T08:42:29;95711.81;;;20.66;80.40
58385;BME280;44185;47.844;8.966;2023-05-21T08:44:58;95701.25;;;20.78;80.30
58385;BME280;44185;47.844;8.966;2023-05-21T08:47:26;95708.63;;;21.17;78.58
58385;BME280;44185;47.844;8.966;2023-05-21T08:49:57;95706.28;;;21.28;77.72
58385;BME280;44185;47.844;8.966;2023-05-21T08:52:24;95697.78;;;20.64;77.50
58385;BME280;44185;47.844;8.966;2023-05-21T08:54:50;95697.94;;;20.83;77.97
58385;BME280;44185;47.844;8.966;2023-05-21T08:57:17;95709.50;;;21.04;77.43
58385;BME280;44185;47.844;8.966;2023-05-21T08:59:43;95700.44;;;20.71;78.88
58385;BME280;44185;47.844;8.966;2023-05-21T09:02:09;95707.94;;;20.28;79.84
58385;BME280;44185;47.844;8.966;2023-05-21T09:04:37;95708.13;;;20.20;80.83
58385;BME280;44185;47.844;8.966;2023-05-21T09:07:03;95710.22;;;20.31;79.21
58385;BME280;44185;47.844;8.966;2023-05-21T09:09:33;95714.56;;;20.46;83.62
58385;BME280;44185;47.844;8.966;2023-05-21T09:11:58;95710.72;;;20.95;78.66
58385;BME280;44185;47.844;8.966;2023-05-21T09:14:25;95711.66;;;20.27;77.54
58385;BME280;44185;47.844;8.966;2023-05-21T09:16:50;95710.44;;;20.43;78.10
58385;BME280;44185;47.844;8.966;2023-05-21T09:19:16;95705.44;;;20.20;77.37
58385;BME280;44185;47.844;8.966;2023-05-21T09:21:45;95711.81;;;20.66;76.91
58385;BME280;44185;47.844;8.966;2023-05-21T09:24:12;95707.84;;;20.96;76.52
58385;BME280;44185;47.844;8.966;2023-05-21T09:26:41;95715.69;;;20.98;75.70
58385;BME280;44185;47.844;8.966;2023-05-21T09:29:06;95706.00;;;20.83;73.63
58385;BME280;44185;47.844;8.966;2023-05-21T09:31:32;95709.88;;;20.94;72.02
58385;BME280;44185;47.844;8.966;2023-05-21T09:33:57;95710.78;;;21.34;72.50
58385;BME280;44185;47.844;8.966;2023-05-21T09:36:23;95705.03;;;21.23;72.17
58385;BME280;44185;47.844;8.966;2023-05-21T09:38:50;95707.19;;;21.93;69.94
58385;BME280;44185;47.844;8.966;2023-05-21T09:41:16;95702.78;;;22.25;67.59
58385;BME280;44185;47.844;8.966;2023-05-21T09:43:42;95698.16;;;22.06;67.40
58385;BME280;44185;47.844;8.966;2023-05-21T09:46:07;95701.63;;;22.14;71.37
58385;BME280;44185;47.844;8.966;2023-05-21T09:48:34;95704.91;;;21.90;67.31
58385;BME280;44185;47.844;8.966;2023-05-21T09:51:08;95696.91;;;21.44;67.48
58385;BME280;44185;47.844;8.966;2023-05-21T09:53:33;95692.41;;;21.63;67.73
58385;BME280;44185;47.844;8.966;2023-05-21T09:56:01;95693.47;;;21.62;67.34
58385;BME280;44185;47.844;8.966;2023-05-21T09:58:26;95701.03;;;21.79;67.92
58385;BME280;44185;47.844;8.966;2023-05-21T10:00:53;95697.69;;;21.84;66.12
58385;BME280;44185;47.844;8.966;2023-05-21T10:03:22;95694.78;;;21.92;68.46
58385;BME280;44185;47.844;8.966;2023-05-21T10:05:48;95700.59;;;21.50;67.01
58385;BME280;44185;47.844;8.966;2023-05-21T10:08:17;95692.25;;;21.97;65.89
58385;BME280;44185;47.844;8.966;2023-05-21T10:10:46;95701.66;;;21.42;66.52
58385;BME280;44185;47.844;8.966;2023-05-21T10:13:17;95698.88;;;21.55;65.14
58385;BME280;44185;47.844;8.966;2023-05-21T10:15:50;95701.50;;;21.30;65.67
58385;BME280;44185;47.844;8.966;2023-05-21T10:18:17;95698.16;;;21.41;65.64
58385;BME280;44185;47.844;8.966;2023-05-21T10:20:44;95695.88;;;21.38;66.84
58385;BME280;44185;47.844;8.966;2023-05-21T10:23:11;95692.66;;;21.62;69.99
58385;BME280;44185;47.844;8.966;2023-05-21T10:25:36;95694.25;;;21.70;66.34
58385;BME280;44185;47.844;8.966;2023-05-21T10:28:02;95693.25;;;21.64;64.46
58385;BME280;44185;47.844;8.966;2023-05-21T10:30:30;95694.94;;;21.58;62.18
58385;BME280;44185;47.844;8.966;2023-05-21T10:32:56;95684.97;;;21.65;65.27
58385;BME280;44185;47.844;8.966;2023-05-21T10:35:23;95690.53;;;21.71;65.66
58385;BME280;44185;47.844;8.966;2023-05-21T10:37:50;95690.66;;;21.83;68.62
58385;BME280;44185;47.844;8.966;2023-05-21T10:40:15;95682.28;;;21.98;67.40
58385;BME280;44185;47.844;8.966;2023-05-21T10:43:05;95683.09;;;21.98;67.85
58385;BME280;44185;47.844;8.966;2023-05-21T10:45:47;95688.09;;;21.62;69.83
58385;BME280;44185;47.844;8.966;2023-05-21T10:48:27;95678.59;;;21.14;68.64
58385;BME280;44185;47.844;8.966;2023-05-21T10:51:17;95688.56;;;21.85;65.16
58385;BME280;44185;47.844;8.966;2023-05-21T10:56:40;95682.13;;;21.60;69.97
58385;BME280;44185;47.844;8.966;2023-05-21T10:59:15;95681.31;;;21.92;68.80
58385;BME280;44185;47.844;8.966;2023-05-21T11:01:44;95687.53;;;21.53;67.80
58385;BME280;44185;47.844;8.966;2023-05-21T11:04:10;95690.19;;;21.60;67.52
58385;BME280;44185;47.844;8.966;2023-05-21T11:06:35;95681.81;;;21.69;68.79
58385;BME280;44185;47.844;8.966;2023-05-21T11:09:10;95688.94;;;21.63;70.78
58385;BME280;44185;47.844;8.966;2023-05-21T11:11:40;95680.88;;;21.17;70.09
58385;BME280;44185;47.844;8.966;2023-05-21T11:14:30;95687.66;;;21.65;69.64
58385;BME280;44185;47.844;8.966;2023-05-21T11:16:57;95690.25;;;21.47;70.34
58385;BME280;44185;47.844;8.966;2023-05-21T11:19:33;95691.53;;;21.37;69.74
58385;BME280;44185;47.844;8.966;2023-05-21T11:21:58;95687.38;;;21.74;71.10
58385;BME280;44185;47.844;8.966;2023-05-21T11:24:24;95694.25;;;21.70;67.01
58385;BME280;44185;47.844;8.966;2023-05-21T11:27:02;95689.25;;;22.06;70.40
58385;BME280;44185;47.844;8.966;2023-05-21T11:29:46;95685.88;;;21.85;66.25
58385;BME280;44185;47.844;8.966;2023-05-21T11:32:13;95680.91;;;22.14;67.34
58385;BME280;44185;47.844;8.966;2023-05-21T11:34:40;95679.22;;;21.94;65.51
58385;BME280;44185;47.844;8.966;2023-05-21T11:37:29;95686.13;;;22.09;67.05
58385;BME280;44185;47.844;8.966;2023-05-21T11:39:56;95677.38;;;21.88;64.27
58385;BME280;44185;47.844;8.966;2023-05-21T11:42:32;95672.56;;;21.97;66.15
58385;BME280;44185;47.844;8.966;2023-05-21T11:44:58;95674.06;;;22.18;67.37
58385;BME280;44185;47.844;8.966;2023-05-21T11:47:26;95673.38;;;22.23;69.53
58385;BME280;44185;47.844;8.966;2023-05-21T11:49:52;95683.44;;;22.09;70.37
58385;BME280;44185;47.844;8.966;2023-05-21T11:52:18;95685.19;;;21.96;67.47
58385;BME280;44185;47.844;8.966;2023-05-21T11:54:45;95679.53;;;21.72;70.78
58385;BME280;44185;47.844;8.966;2023-05-21T11:57:11;95681.47;;;21.97;66.10
58385;BME280;44185;47.844;8.966;2023-05-21T11:59:36;95681.81;;;22.08;67.63
58385;BME280;44185;47.844;8.966;2023-05-21T12:02:03;95680.38;;;21.73;64.45
58385;BME280;44185;47.844;8.966;2023-05-21T12:04:30;95677.94;;;21.97;63.93
58385;BME280;44185;47.844;8.966;2023-05-21T12:06:55;95681.13;;;22.38;64.96
58385;BME280;44185;47.844;8.966;2023-05-21T12:09:21;95687.63;;;22.30;65.13
58385;BME280;44185;47.844;8.966;2023-05-21T12:11:46;95677.44;;;22.32;65.06
58385;BME280;44185;47.844;8.966;2023-05-21T12:14:12;95676.00;;;22.55;65.54
58385;BME280;44185;47.844;8.966;2023-05-21T12:16:38;95674.28;;;22.80;64.17
58385;BME280;44185;47.844;8.966;2023-05-21T12:19:05;95669.25;;;22.65;61.28
58385;BME280;44185;47.844;8.966;2023-05-21T12:21:32;95678.06;;;22.79;63.86
58385;BME280;44185;47.844;8.966;2023-05-21T12:23:58;95672.19;;;22.63;62.83
58385;BME280;44185;47.844;8.966;2023-05-21T12:26:24;95672.66;;;22.98;63.56
58385;BME280;44185;47.844;8.966;2023-05-21T12:28:50;95665.56;;;23.35;63.38
58385;BME280;44185;47.844;8.966;2023-05-21T12:31:16;95679.75;;;23.30;60.37
58385;BME280;44185;47.844;8.966;2023-05-21T12:33:43;95671.81;;;23.47;59.56
58385;BME280;44185;47.844;8.966;2023-05-21T12:36:09;95671.22;;;23.64;54.55
58385;BME280;44185;47.844;8.966;2023-05-21T12:38:35;95668.56;;;23.88;56.13
58385;BME280;44185;47.844;8.966;2023-05-21T12:41:02;95672.09;;;23.88;58.35
58385;BME280;44185;47.844;8.966;2023-05-21T12:43:30;95660.16;;;23.65;59.10
58385;BME280;44185;47.844;8.966;2023-05-21T12:45:56;95667.41;;;23.53;59.84
58385;BME280;44185;47.844;8.966;2023-05-21T12:48:21;95668.97;;;23.42;58.63
58385;BME280;44185;47.844;8.966;2023-05-21T12:50:46;95667.19;;;23.36;60.60
58385;BME280;44185;47.844;8.966;2023-05-21T12:53:12;95668.66;;;23.19;60.54
58385;BME280;44185;47.844;8.966;2023-05-21T12:55:39;95660.09;;;23.22;58.66